sensor_id;sensor_type;location;lat;lon;timestamp;pressure;altitude;pressure_sealevel;temperature;humidity
61674;BME280;47573;43.832;5.974;2023-04-28T00:03:11;95433.72;;;26.62;52.97
61674;BME280;47573;43.832;5.974;2023-04-28T00:09:53;95435.91;;;26.60;52.97
61674;BME280;47573;43.832;5.974;2023-04-28T00:16:33;95435.06;;;26.60;53.31
61674;BME280;47573;43.832;5.974;2023-04-28T00:23:14;95449.03;;;26.58;52.98
61674;BME280;47573;43.832;5.974;2023-04-28T00:29:56;95445.72;;;26.56;53.25
61674;BME280;47573;43.832;5.974;2023-04-28T00:36:37;95426.00;;;26.54;53.57
61674;BME280;47573;43.832;5.974;2023-04-28T00:43:17;95407.09;;;26.53;53.15
61674;BME280;47573;43.832;5.974;2023-04-28T00:49:59;95401.88;;;26.51;53.60
61674;BME280;47573;43.832;5.974;2023-04-28T00:56:41;95397.50;;;26.50;53.63
61674;BME280;47573;43.832;5.974;2023-04-28T01:03:22;95391.44;;;26.48;53.32
61674;BME280;47573;43.832;5.974;2023-04-28T01:10:05;95379.94;;;26.46;53.58
61674;BME280;47573;43.832;5.974;2023-04-28T01:16:46;95381.00;;;26.45;53.76
61674;BME280;47573;43.832;5.974;2023-04-28T01:23:26;95383.47;;;26.42;53.90
61674;BME280;47573;43.832;5.974;2023-04-28T01:30:09;95382.63;;;26.41;53.71
61674;BME280;47573;43.832;5.974;2023-04-28T01:36:49;95390.28;;;26.39;53.76
61674;BME280;47573;43.832;5.974;2023-04-28T01:43:30;95400.09;;;26.35;53.79
61674;BME280;47573;43.832;5.974;2023-04-28T01:50:12;95407.25;;;26.36;53.85
61674;BME280;47573;43.832;5.974;2023-04-28T01:56:52;95402.28;;;26.33;53.67
61674;BME280;47573;43.832;5.974;2023-04-28T02:03:33;95407.47;;;26.29;53.74
61674;BME280;47573;43.832;5.974;2023-04-28T02:10:15;95418.13;;;26.26;53.87
61674;BME280;47573;43.832;5.974;2023-04-28T02:16:55;95408.50;;;26.23;53.90
61674;BME280;47573;43.832;5.974;2023-04-28T02:23:36;95415.34;;;26.21;53.85
61674;BME280;47573;43.832;5.974;2023-04-28T02:30:18;95418.84;;;26.16;54.19
61674;BME280;47573;43.832;5.974;2023-04-28T02:36:58;95410.91;;;26.15;54.43
61674;BME280;47573;43.832;5.974;2023-04-28T02:43:39;95413.06;;;26.13;54.38
61674;BME280;47573;43.832;5.974;2023-04-28T02:50:21;95409.78;;;26.11;54.29
61674;BME280;47573;43.832;5.974;2023-04-28T02:57:02;95409.13;;;26.04;54.33
61674;BME280;47573;43.832;5.974;2023-04-28T03:03:43;95412.41;;;26.06;54.46
61674;BME280;47573;43.832;5.974;2023-04-28T03:10:25;95411.28;;;26.02;54.19
61674;BME280;47573;43.832;5.974;2023-04-28T03:17:05;95403.34;;;26.00;54.45
61674;BME280;47573;43.832;5.974;2023-04-28T03:23:46;95395.41;;;25.99;54.23
61674;BME280;47573;43.832;5.974;2023-04-28T03:30:27;95410.69;;;25.95;54.45
61674;BME280;47573;43.832;5.974;2023-04-28T03:37:08;95411.00;;;25.98;54.20
61674;BME280;47573;43.832;5.974;2023-04-28T03:43:49;95404.66;;;25.93;54.56
61674;BME280;47573;43.832;5.974;2023-04-28T03:50:30;95407.91;;;25.90;54.31
61674;BME280;47573;43.832;5.974;2023-04-28T03:57:11;95413.88;;;25.87;54.37
61674;BME280;47573;43.832;5.974;2023-04-28T04:03:52;95412.75;;;25.83;54.77
61674;BME280;47573;43.832;5.974;2023-04-28T04:10:33;95414.41;;;25.84;54.46
61674;BME280;47573;43.832;5.974;2023-04-28T04:17:14;95407.03;;;25.84;54.74
61674;BME280;47573;43.832;5.974;2023-04-28T04:23:55;95419.31;;;25.82;54.44
61674;BME280;47573;43.832;5.974;2023-04-28T04:30:36;95412.72;;;25.78;54.51
61674;BME280;47573;43.832;5.974;2023-04-28T04:37:17;95426.88;;;25.75;54.59
61674;BME280;47573;43.832;5.974;2023-04-28T04:43:58;95424.16;;;25.75;54.72
61674;BME280;47573;43.832;5.974;2023-04-28T04:50:40;95435.06;;;25.70;54.83
61674;BME280;47573;43.832;5.974;2023-04-28T04:57:20;95427.44;;;25.72;54.66
61674;BME280;47573;43.832;5.974;2023-04-28T05:04:01;95424.78;;;25.82;54.67
61674;BME280;47573;43.832;5.974;2023-04-28T05:10:42;95434.13;;;25.86;54.71
61674;BME280;47573;43.832;5.974;2023-04-28T05:17:23;95433.56;;;25.84;50.37
61674;BME280;47573;43.832;5.974;2023-04-28T05:24:04;95455.28;;;25.69;48.59
61674;BME280;47573;43.832;5.974;2023-04-28T05:30:46;95454.66;;;25.62;48.34
61674;BME280;47573;43.832;5.974;2023-04-28T05:37:27;95476.94;;;25.48;48.78
61674;BME280;47573;43.832;5.974;2023-04-28T05:44:07;95475.38;;;25.58;47.77
61674;BME280;47573;43.832;5.974;2023-04-28T05:50:49;95480.78;;;25.52;47.41
61674;BME280;47573;43.832;5.974;2023-04-28T05:57:30;95493.94;;;25.56;48.22
61674;BME280;47573;43.832;5.974;2023-04-28T06:04:10;95485.75;;;25.56;47.40
61674;BME280;47573;43.832;5.974;2023-04-28T06:10:52;95487.94;;;25.15;47.57
61674;BME280;47573;43.832;5.974;2023-04-28T06:17:33;95478.69;;;25.00;47.43
61674;BME280;47573;43.832;5.974;2023-04-28T06:24:13;95479.31;;;25.23;48.32
61674;BME280;47573;43.832;5.974;2023-04-28T06:30:55;95471.00;;;25.57;49.87
61674;BME280;47573;43.832;5.974;2023-04-28T06:37:36;95482.59;;;25.64;49.79
61674;BME280;47573;43.832;5.974;2023-04-28T06:44:16;95492.03;;;25.78;50.31
61674;BME280;47573;43.832;5.974;2023-04-28T06:50:58;95488.19;;;25.79;50.33
61674;BME280;47573;43.832;5.974;2023-04-28T06:57:38;95498.13;;;25.85;50.26
61674;BME280;47573;43.832;5.974;2023-04-28T07:04:19;95496.03;;;25.92;50.57
61674;BME280;47573;43.832;5.974;2023-04-28T07:11:01;95477.50;;;25.99;50.49
61674;BME280;47573;43.832;5.974;2023-04-28T07:17:42;95481.94;;;26.05;50.43
61674;BME280;47573;43.832;5.974;2023-04-28T07:24:22;95477.25;;;26.05;50.44
61674;BME280;47573;43.832;5.974;2023-04-28T07:31:04;95465.00;;;26.08;50.87
61674;BME280;47573;43.832;5.974;2023-04-28T07:37:44;95469.41;;;26.09;50.90
61674;BME280;47573;43.832;5.974;2023-04-28T07:44:25;95473.78;;;26.10;50.89
61674;BME280;47573;43.832;5.974;2023-04-28T07:51:07;95479.88;;;26.17;50.55
61674;BME280;47573;43.832;5.974;2023-04-28T07:57:47;95483.75;;;26.21;50.80
61674;BME280;47573;43.832;5.974;2023-04-28T08:04:28;95478.34;;;26.26;50.73
61674;BME280;47573;43.832;5.974;2023-04-28T08:11:10;95478.34;;;26.26;50.99
61674;BME280;47573;43.832;5.974;2023-04-28T08:17:50;95487.13;;;26.28;50.92
61674;BME280;47573;43.832;5.974;2023-04-28T08:24:31;95471.28;;;26.35;50.75
61674;BME280;47573;43.832;5.974;2023-04-28T08:31:13;95489.38;;;26.36;50.97
61674;BME280;47573;43.832;5.974;2023-04-28T08:37:53;95477.88;;;26.39;50.85
61674;BME280;47573;43.832;5.974;2023-04-28T08:44:36;95483.44;;;26.44;50.91
61674;BME280;47573;43.832;5.974;2023-04-28T08:51:25;95497.13;;;26.44;51.05
61674;BME280;47573;43.832;5.974;2023-04-28T08:58:07;95493.34;;;26.50;50.68
61674;BME280;47573;43.832;5.974;2023-04-28T09:04:48;95501.00;;;26.53;50.87
61674;BME280;47573;43.832;5.974;2023-04-28T09:11:29;95500.50;;;26.56;50.96
61674;BME280;47573;43.832;5.974;2023-04-28T09:18:13;95491.78;;;26.64;50.62
61674;BME280;47573;43.832;5.974;2023-04-28T09:24:54;95485.50;;;26.64;50.64
61674;BME280;47573;43.832;5.974;2023-04-28T09:31:35;95497.69;;;26.78;48.52
61674;BME280;47573;43.832;5.974;2023-04-28T09:38:17;95497.44;;;26.84;46.21
61674;BME280;47573;43.832;5.974;2023-04-28T09:44:58;95492.59;;;26.91;43.31
61674;BME280;47573;43.832;5.974;2023-04-28T09:51:40;95488.16;;;26.85;43.78
61674;BME280;47573;43.832;5.974;2023-04-28T09:58:22;95484.84;;;26.83;44.70
61674;BME280;47573;43.832;5.974;2023-04-28T10:05:04;95485.47;;;26.90;44.76
61674;BME280;47573;43.832;5.974;2023-04-28T10:11:47;95492.69;;;27.12;42.61
61674;BME280;47573;43.832;5.974;2023-04-28T10:18:28;95485.03;;;27.08;43.27
61674;BME280;47573;43.832;5.974;2023-04-28T10:25:24;95499.25;;;27.05;44.40
61674;BME280;47573;43.832;5.974;2023-04-28T10:32:20;95509.63;;;26.98;44.87
61674;BME280;47573;43.832;5.974;2023-04-28T10:39:08;95490.53;;;27.14;43.68
61674;BME280;47573;43.832;5.974;2023-04-28T10:45:59;95491.06;;;27.11;44.94
61674;BME280;47573;43.832;5.974;2023-04-28T10:52:51;95492.69;;;27.12;45.42
61674;BME280;47573;43.832;5.974;2023-04-28T10:59:31;95479.28;;;27.10;45.83
61674;BME280;47573;43.832;5.974;2023-04-28T11:06:19;95474.16;;;27.24;45.80
61674;BME280;47573;43.832;5.974;2023-04-28T11:13:26;95461.00;;;27.26;45.91
61674;BME280;47573;43.832;5.974;2023-04-28T11:20:11;95461.00;;;27.31;46.24
61674;BME280;47573;43.832;5.974;2023-04-28T11:26:52;95450.59;;;27.33;46.46
61674;BME280;47573;43.832;5.974;2023-04-28T11:33:34;95434.16;;;27.33;46.46
61674;BME280;47573;43.832;5.974;2023-04-28T11:40:15;95433.09;;;27.39;46.63
61674;BME280;47573;43.832;5.974;2023-04-28T11:46:58;95440.25;;;27.40;46.69
61674;BME280;47573;43.832;5.974;2023-04-28T11:53:43;95436.72;;;27.44;47.09
61674;BME280;47573;43.832;5.974;2023-04-28T12:00:25;95418.88;;;27.47;47.06
61674;BME280;47573;43.832;5.974;2023-04-28T12:07:08;95412.88;;;27.50;47.15
61674;BME280;47573;43.832;5.974;2023-04-28T12:14:06;95424.91;;;27.49;47.51
61674;BME280;47573;43.832;5.974;2023-04-28T12:20:46;95417.53;;;27.49;47.31
61674;BME280;47573;43.832;5.974;2023-04-28T12:27:27;95411.19;;;27.49;47.64
61674;BME280;47573;43.832;5.974;2023-04-28T12:34:09;95415.06;;;27.53;47.47
61674;BME280;47573;43.832;5.974;2023-04-28T12:40:49;95412.03;;;27.49;47.73
61674;BME280;47573;43.832;5.974;2023-04-28T12:47:30;95419.97;;;27.51;48.02
61674;BME280;47573;43.832;5.974;2023-04-28T12:54:12;95409.84;;;27.51;48.08
61674;BME280;47573;43.832;5.974;2023-04-28T13:00:52;95405.47;;;27.55;48.06
61674;BME280;47573;43.832;5.974;2023-04-28T13:07:33;95390.41;;;27.58;48.13
61674;BME280;47573;43.832;5.974;2023-04-28T13:14:15;95387.66;;;27.58;48.22
61674;BME280;47573;43.832;5.974;2023-04-28T13:20:56;95366.81;;;27.62;48.09
61674;BME280;47573;43.832;5.974;2023-04-28T13:27:36;95355.00;;;27.61;48.18
61674;BME280;47573;43.832;5.974;2023-04-28T13:34:18;95354.50;;;27.69;48.23
61674;BME280;47573;43.832;5.974;2023-04-28T13:40:58;95351.16;;;27.57;48.81
61674;BME280;47573;43.832;5.974;2023-04-28T13:47:39;95333.06;;;27.61;47.96
61674;BME280;47573;43.832;5.974;2023-04-28T13:54:21;95339.38;;;27.62;48.21
61674;BME280;47573;43.832;5.974;2023-04-28T14:01:02;95324.03;;;27.76;48.46
61674;BME280;47573;43.832;5.974;2023-04-28T14:07:42;95336.13;;;27.75;48.76
61674;BME280;47573;43.832;5.974;2023-04-28T14:14:24;95312.53;;;27.79;48.19
61674;BME280;47573;43.832;5.974;2023-04-28T14:21:05;95315.28;;;27.94;47.80
61674;BME280;47573;43.832;5.974;2023-04-28T14:27:47;95302.69;;;27.98;47.19
61674;BME280;47573;43.832;5.974;2023-04-28T14:34:29;95292.22;;;27.90;47.17
61674;BME280;47573;43.832;5.974;2023-04-28T14:41:09;95291.16;;;28.06;47.06
61674;BME280;47573;43.832;5.974;2023-04-28T14:47:50;95284.28;;;27.99;47.31
61674;BME280;47573;43.832;5.974;2023-04-28T14:54:32;95265.31;;;28.07;45.52
61674;BME280;47573;43.832;5.974;2023-04-28T15:01:12;95265.91;;;28.04;46.44
61674;BME280;47573;43.832;5.974;2023-04-28T15:07:53;95253.25;;;28.03;46.68
61674;BME280;47573;43.832;5.974;2023-04-28T15:14:35;95253.25;;;28.03;46.64
61674;BME280;47573;43.832;5.974;2023-04-28T15:21:15;95268.63;;;28.04;46.04
61674;BME280;47573;43.832;5.974;2023-04-28T15:27:56;95249.94;;;28.11;44.95
61674;BME280;47573;43.832;5.974;2023-04-28T15:34:38;95244.44;;;28.11;45.50
61674;BME280;47573;43.832;5.974;2023-04-28T15:41:18;95243.94;;;28.04;45.61
61674;BME280;47573;43.832;5.974;2023-04-28T15:47:59;95233.50;;;28.01;45.55
61674;BME280;47573;43.832;5.974;2023-04-28T16:01:55;95235.69;;;28.04;45.37
61674;BME280;47573;43.832;5.974;2023-04-28T16:08:35;95221.13;;;28.14;44.90
61674;BME280;47573;43.832;5.974;2023-04-28T16:15:16;95232.09;;;28.14;44.00
61674;BME280;47573;43.832;5.974;2023-04-28T16:21:58;95231.28;;;28.13;43.76
61674;BME280;47573;43.832;5.974;2023-04-28T16:28:38;95226.38;;;28.00;44.39
61674;BME280;47573;43.832;5.974;2023-04-28T16:35:19;95225.25;;;28.06;44.43
61674;BME280;47573;43.832;5.974;2023-04-28T16:42:01;95211.53;;;28.01;44.42
61674;BME280;47573;43.832;5.974;2023-04-28T16:48:41;95207.97;;;27.96;44.32
61674;BME280;47573;43.832;5.974;2023-04-28T16:55:22;95207.69;;;27.92;44.65
61674;BME280;47573;43.832;5.974;2023-04-28T17:02:04;95209.91;;;27.90;44.77
61674;BME280;47573;43.832;5.974;2023-04-28T17:08:44;95203.03;;;27.88;44.89
61674;BME280;47573;43.832;5.974;2023-04-28T17:15:25;95212.34;;;27.86;44.63
61674;BME280;47573;43.832;5.974;2023-04-28T17:22:07;95200.56;;;27.81;44.55
61674;BME280;47573;43.832;5.974;2023-04-28T17:28:48;95200.00;;;27.74;44.47
61674;BME280;47573;43.832;5.974;2023-04-28T17:35:28;95216.50;;;27.64;44.78
61674;BME280;47573;43.832;5.974;2023-04-28T17:42:10;95218.69;;;27.52;44.99
61674;BME280;47573;43.832;5.974;2023-04-28T17:48:51;95209.38;;;27.63;45.05
61674;BME280;47573;43.832;5.974;2023-04-28T17:55:31;95200.59;;;27.61;45.29
61674;BME280;47573;43.832;5.974;2023-04-28T18:02:13;95205.78;;;27.57;45.74
61674;BME280;47573;43.832;5.974;2023-04-28T18:08:54;95212.94;;;27.48;45.89
61674;BME280;47573;43.832;5.974;2023-04-28T18:15:34;95212.66;;;27.45;45.76
61674;BME280;47573;43.832;5.974;2023-04-28T18:22:16;95212.66;;;27.45;46.05
61674;BME280;47573;43.832;5.974;2023-04-28T18:28:57;95223.06;;;27.38;46.34
61674;BME280;47573;43.832;5.974;2023-04-28T18:35:37;95220.28;;;27.33;46.43
61674;BME280;47573;43.832;5.974;2023-04-28T18:42:19;95227.94;;;27.21;46.51
61674;BME280;47573;43.832;5.974;2023-04-28T18:49:00;95233.41;;;27.00;46.49
61674;BME280;47573;43.832;5.974;2023-04-28T18:55:41;95238.56;;;26.97;46.90
61674;BME280;47573;43.832;5.974;2023-04-28T19:02:23;95241.59;;;26.95;47.19
61674;BME280;47573;43.832;5.974;2023-04-28T19:09:03;95245.38;;;26.84;47.09
61674;BME280;47573;43.832;5.974;2023-04-28T19:15:44;95248.66;;;26.76;47.66
61674;BME280;47573;43.832;5.974;2023-04-28T19:22:30;95235.59;;;27.08;47.65
61674;BME280;47573;43.832;5.974;2023-04-28T19:29:10;95237.56;;;27.33;47.73
61674;BME280;47573;43.832;5.974;2023-04-28T19:35:51;95237.88;;;27.37;48.51
61674;BME280;47573;43.832;5.974;2023-04-28T19:42:34;95235.97;;;27.42;48.61
61674;BME280;47573;43.832;5.974;2023-04-28T19:49:14;95244.47;;;27.46;49.05
61674;BME280;47573;43.832;5.974;2023-04-28T19:55:56;95243.09;;;27.43;49.54
61674;BME280;47573;43.832;5.974;2023-04-28T20:02:38;95242.25;;;27.43;49.80
61674;BME280;47573;43.832;5.974;2023-04-28T20:09:19;95246.13;;;27.42;49.91
61674;BME280;47573;43.832;5.974;2023-04-28T20:15:59;95241.72;;;27.41;50.33
61674;BME280;47573;43.832;5.974;2023-04-28T20:22:41;95242.25;;;27.43;50.35
61674;BME280;47573;43.832;5.974;2023-04-28T20:29:21;95246.13;;;27.42;50.27
61674;BME280;47573;43.832;5.974;2023-04-28T20:36:02;95242.25;;;27.43;47.08
61674;BME280;47573;43.832;5.974;2023-04-28T20:42:44;95231.56;;;27.36;49.02
61674;BME280;47573;43.832;5.974;2023-04-28T20:49:24;95234.56;;;27.35;49.41
61674;BME280;47573;43.832;5.974;2023-04-28T20:56:05;95234.03;;;27.38;49.51
61674;BME280;47573;43.832;5.974;2023-04-28T21:02:47;95238.41;;;27.39;49.73
61674;BME280;47573;43.832;5.974;2023-04-28T21:09:27;95239.53;;;27.38;50.19
61674;BME280;47573;43.832;5.974;2023-04-28T21:16:12;95242.00;;;27.39;50.40
61674;BME280;47573;43.832;5.974;2023-04-28T21:22:54;95243.34;;;27.37;50.61
61674;BME280;47573;43.832;5.974;2023-04-28T21:29:34;95242.28;;;27.38;50.68
61674;BME280;47573;43.832;5.974;2023-04-28T21:36:15;95242.81;;;27.35;50.83
61674;BME280;47573;43.832;5.974;2023-04-28T21:42:57;95240.59;;;27.32;50.95
61674;BME280;47573;43.832;5.974;2023-04-28T21:49:37;95235.63;;;27.29;51.23
61674;BME280;47573;43.832;5.974;2023-04-28T21:56:18;95241.13;;;27.29;51.36
61674;BME280;47573;43.832;5.974;2023-04-28T22:02:59;95235.63;;;27.29;51.49
61674;BME280;47573;43.832;5.974;2023-04-28T22:09:40;95235.63;;;27.29;51.60
61674;BME280;47573;43.832;5.974;2023-04-28T22:16:21;95224.13;;;27.27;51.83
61674;BME280;47573;43.832;5.974;2023-04-28T22:23:03;95215.94;;;27.37;51.85
61674;BME280;47573;43.832;5.974;2023-04-28T22:29:43;95221.16;;;27.38;51.48
61674;BME280;47573;43.832;5.974;2023-04-28T22:36:24;95214.84;;;27.38;51.66
61674;BME280;47573;43.832;5.974;2023-04-28T22:43:05;95221.41;;;27.32;51.88
61674;BME280;47573;43.832;5.974;2023-04-28T22:49:46;95211.50;;;27.31;51.60
61674;BME280;47573;43.832;5.974;2023-04-28T22:56:26;95212.66;;;27.35;51.74
61674;BME280;47573;43.832;5.974;2023-04-28T23:03:08;95204.97;;;27.37;51.96
61674;BME280;47573;43.832;5.974;2023-04-28T23:09:49;95200.84;;;27.34;52.11
61674;BME280;47573;43.832;5.974;2023-04-28T23:16:29;95185.75;;;27.32;52.28
61674;BME280;47573;43.832;5.974;2023-04-28T23:23:11;95192.03;;;27.32;52.24
61674;BME280;47573;43.832;5.974;2023-04-28T23:29:52;95185.75;;;27.32;52.22
61674;BME280;47573;43.832;5.974;2023-04-28T23:36:32;95179.19;;;27.28;51.91
61674;BME280;47573;43.832;5.974;2023-04-28T23:43:14;95161.06;;;27.27;52.10
61674;BME280;47573;43.832;5.974;2023-04-28T23:49:54;95171.75;;;27.23;52.01
61674;BME280;47573;43.832;5.974;2023-04-28T23:56:35;95158.34;;;27.22;52.23
